createdAt,value
2019-04-05T00:02:19.746Z,9.97
2019-04-05T00:04:49.811Z,10.10
2019-04-05T00:07:19.887Z,9.00
2019-04-05T00:09:49.973Z,10.33
2019-04-05T00:12:20.108Z,10.43
2019-04-05T00:14:50.172Z,10.33
2019-04-05T00:17:20.217Z,10.13
2019-04-05T00:19:50.364Z,10.87
2019-04-05T00:22:20.513Z,10.53
2019-04-05T00:24:50.652Z,10.10
2019-04-05T00:27:20.709Z,9.70
2019-04-05T00:29:50.797Z,10.33
2019-04-05T00:32:20.835Z,10.77
2019-04-05T00:34:50.876Z,9.43
2019-04-05T00:37:20.986Z,10.30
2019-04-05T00:39:51.070Z,10.70
2019-04-05T00:42:21.136Z,9.40
2019-04-05T00:44:51.201Z,9.83
2019-04-05T00:47:21.346Z,10.70
2019-04-05T00:49:51.409Z,10.53
2019-04-05T00:52:21.607Z,10.50
2019-04-05T00:54:51.658Z,9.87
2019-04-05T00:57:21.741Z,10.33
2019-04-05T00:59:51.803Z,9.60
2019-04-05T01:02:21.991Z,9.67
2019-04-05T01:04:52.068Z,10.60
2019-04-05T01:07:22.123Z,10.00
2019-04-05T01:09:52.200Z,10.20
2019-04-05T01:12:24.428Z,10.80
2019-04-05T01:14:55.751Z,11.27
2019-04-05T01:17:26.022Z,10.37
2019-04-05T01:19:59.903Z,10.23
2019-04-05T01:22:31.396Z,10.33
2019-04-05T01:25:02.087Z,10.00
2019-04-05T01:27:32.655Z,10.23
2019-04-05T01:30:02.848Z,10.43
2019-04-05T01:32:32.907Z,10.63
2019-04-05T01:35:02.965Z,10.87
2019-04-05T01:37:33.144Z,11.53
2019-04-05T01:40:03.495Z,11.27
2019-04-05T01:42:33.631Z,10.10
2019-04-05T01:45:03.724Z,10.90
2019-04-05T01:47:33.948Z,10.40
2019-04-05T01:50:03.996Z,10.70
2019-04-05T01:52:34.469Z,10.73
2019-04-05T01:55:04.655Z,11.00
2019-04-05T01:57:34.749Z,10.40
2019-04-05T02:00:06.016Z,10.20
2019-04-05T02:02:36.215Z,10.03
2019-04-05T02:05:08.290Z,10.60
2019-04-05T02:07:38.701Z,10.67
2019-04-05T02:10:10.626Z,10.47
2019-04-05T02:12:41.818Z,10.87
2019-04-05T02:15:23.068Z,10.23
2019-04-05T02:17:53.158Z,10.67
2019-04-05T02:20:23.420Z,11.13
2019-04-05T02:22:53.598Z,10.63
2019-04-05T02:25:23.778Z,10.47
2019-04-05T02:27:53.934Z,12.33
2019-04-05T02:30:24.223Z,11.20
2019-04-05T02:32:54.605Z,10.83
2019-04-05T02:35:24.788Z,11.73
2019-04-05T02:37:54.843Z,11.40
2019-04-05T02:40:26.911Z,10.20
2019-04-05T02:43:00.030Z,10.63
2019-04-05T02:45:34.001Z,10.00
2019-04-05T02:48:07.279Z,11.37
2019-04-05T02:50:40.905Z,11.37
2019-04-05T02:53:13.699Z,11.13
2019-04-05T02:55:44.434Z,10.03
2019-04-05T02:58:15.777Z,10.77
2019-04-05T03:00:46.698Z,11.30
2019-04-05T03:03:17.768Z,10.67
2019-04-05T03:05:48.620Z,10.90
2019-04-05T03:08:19.188Z,10.87
2019-04-05T03:10:55.238Z,11.37
2019-04-05T03:13:27.347Z,11.03
2019-04-05T03:16:00.313Z,12.20
2019-04-05T03:18:32.183Z,11.00
2019-04-05T03:21:05.456Z,10.63
2019-04-05T03:23:38.704Z,11.60
2019-04-05T03:26:12.386Z,12.27
2019-04-05T03:28:44.492Z,11.87
2019-04-05T03:31:14.585Z,10.67
2019-04-05T03:33:45.298Z,12.07
2019-04-05T03:36:16.659Z,11.20
2019-04-05T03:38:47.586Z,11.37
2019-04-05T03:41:18.304Z,10.67
2019-04-05T03:43:48.313Z,11.57
2019-04-05T03:46:18.791Z,11.47
2019-04-05T03:48:49.583Z,11.10
2019-04-05T03:51:20.376Z,11.23
2019-04-05T03:53:50.620Z,11.10
2019-04-05T03:56:21.456Z,11.77
2019-04-05T03:58:51.597Z,11.47
2019-04-05T04:01:21.812Z,11.73
2019-04-05T04:03:51.919Z,12.27
2019-04-05T04:06:22.848Z,12.07
2019-04-05T04:08:53.612Z,11.80
2019-04-05T04:11:23.761Z,11.53
2019-04-05T04:13:53.944Z,11.93
2019-04-05T04:16:24.081Z,11.43
2019-04-05T04:18:54.119Z,11.80
2019-04-05T04:21:53.072Z,12.77
2019-04-05T04:24:23.120Z,12.40
2019-04-05T04:26:53.184Z,11.53
2019-04-05T04:29:23.634Z,11.77
2019-04-05T04:31:53.661Z,11.93
2019-04-05T04:34:23.990Z,11.87
2019-04-05T04:36:54.131Z,11.93
2019-04-05T04:39:24.166Z,12.57
2019-04-05T04:41:54.212Z,12.27
2019-04-05T04:44:24.289Z,12.77
2019-04-05T04:46:54.461Z,12.30
2019-04-05T04:49:24.704Z,12.57
2019-04-05T04:51:55.158Z,12.97
2019-04-05T04:54:25.516Z,13.07
2019-04-05T04:56:58.866Z,12.93
2019-04-05T04:59:29.174Z,11.43
2019-04-05T05:01:59.322Z,13.40
2019-04-05T05:04:30.149Z,13.33
2019-04-05T05:07:00.282Z,13.13
2019-04-05T05:09:30.582Z,13.93
2019-04-05T05:12:00.811Z,12.50
2019-04-05T05:14:31.045Z,13.97
2019-04-05T05:17:01.507Z,12.63
2019-04-05T05:19:31.664Z,12.43
2019-04-05T05:22:02.074Z,11.70
2019-04-05T05:24:32.710Z,12.37
2019-04-05T05:27:02.858Z,12.87
2019-04-05T05:29:32.922Z,13.03
2019-04-05T05:32:03.101Z,12.43
2019-04-05T05:34:33.431Z,12.70
2019-04-05T05:37:03.970Z,12.73
2019-04-05T05:39:34.000Z,12.23
2019-04-05T05:42:04.208Z,13.00
2019-04-05T05:44:35.230Z,12.80
2019-04-05T05:47:05.316Z,12.57
2019-04-05T05:49:35.359Z,12.73
2019-04-05T05:52:05.533Z,12.40
2019-04-05T05:54:35.592Z,12.77
2019-04-05T05:57:05.759Z,12.90
2019-04-05T05:59:36.526Z,12.83
2019-04-05T06:02:07.417Z,12.77
2019-04-05T06:04:37.597Z,11.97
2019-04-05T06:07:07.678Z,11.73
2019-04-05T06:09:38.244Z,12.30
2019-04-05T06:12:12.869Z,12.87
2019-04-05T06:14:43.840Z,13.43
2019-04-05T06:17:15.673Z,13.00
2019-04-05T06:19:47.194Z,13.27
2019-04-05T06:22:18.322Z,12.50
2019-04-05T06:24:48.353Z,13.30
2019-04-05T06:27:18.397Z,13.00
2019-04-05T06:29:48.474Z,13.13
2019-04-05T06:32:18.534Z,12.93
2019-04-05T06:34:48.575Z,13.80
2019-04-05T06:37:18.662Z,15.10
2019-04-05T06:39:48.724Z,14.57
2019-04-05T06:42:19.292Z,14.60
2019-04-05T06:44:49.331Z,13.97
2019-04-05T06:47:19.371Z,13.97
2019-04-05T06:49:49.472Z,13.43
2019-04-05T06:52:19.513Z,14.30
2019-04-05T06:54:49.568Z,14.60
2019-04-05T06:57:19.617Z,15.97
2019-04-05T06:59:49.642Z,13.60
2019-04-05T07:02:20.227Z,13.83
2019-04-05T07:04:50.570Z,14.13
2019-04-05T07:07:20.626Z,14.03
2019-04-05T07:09:50.666Z,14.80
2019-04-05T07:12:20.945Z,13.77
2019-04-05T07:14:51.096Z,13.17
2019-04-05T07:17:21.162Z,13.23
2019-04-05T07:19:51.235Z,12.97
2019-04-05T07:22:35.597Z,12.37
2019-04-05T07:24:53.039Z,12.00
2019-04-05T07:27:23.057Z,12.73
2019-04-05T07:29:53.140Z,12.40
2019-04-05T07:32:23.184Z,12.50
2019-04-05T07:34:53.254Z,11.57
2019-04-05T07:37:23.295Z,12.43
2019-04-05T07:39:53.346Z,12.30
2019-04-05T07:42:23.393Z,12.83
2019-04-05T07:44:53.500Z,14.87
2019-04-05T07:47:23.562Z,14.60
2019-04-05T07:49:53.596Z,15.50
2019-04-05T07:52:23.659Z,17.70
2019-04-05T07:54:53.860Z,17.90
2019-04-05T07:57:23.934Z,18.07
2019-04-05T07:59:53.986Z,17.57
2019-04-05T08:02:24.052Z,17.83
2019-04-05T08:04:54.765Z,18.83
2019-04-05T08:07:28.420Z,19.47
2019-04-05T08:09:58.561Z,20.70
2019-04-05T08:12:30.468Z,19.73
2019-04-05T08:15:00.884Z,17.70
2019-04-05T08:17:31.873Z,20.43
2019-04-05T08:20:01.928Z,20.63
2019-04-05T08:22:32.527Z,20.87
2019-04-05T08:25:02.538Z,19.43
2019-04-05T08:27:33.608Z,22.40
2019-04-05T08:30:03.755Z,24.37
2019-04-05T08:32:34.618Z,24.63
2019-04-05T08:35:04.732Z,23.90
2019-04-05T08:37:34.885Z,28.93
2019-04-05T08:40:05.457Z,30.43
2019-04-05T08:42:35.764Z,28.50
2019-04-05T08:45:06.615Z,29.17
2019-04-05T08:47:36.720Z,26.00
2019-04-05T08:50:06.822Z,27.17
2019-04-05T08:52:37.030Z,25.30
2019-04-05T08:55:07.204Z,25.07
2019-04-05T08:57:38.205Z,25.10
2019-04-05T09:00:08.886Z,26.00
2019-04-05T09:02:39.406Z,26.60
2019-04-05T09:05:10.277Z,28.33
2019-04-05T09:07:40.317Z,27.97
2019-04-05T09:10:10.438Z,22.47
2019-04-05T09:12:41.490Z,16.37
2019-04-05T09:15:11.778Z,15.30
2019-04-05T09:17:41.819Z,17.20
2019-04-05T09:20:12.701Z,16.30
2019-04-05T09:22:42.784Z,15.93
2019-04-05T09:25:12.850Z,16.47
2019-04-05T09:27:43.564Z,16.30
2019-04-05T09:30:13.752Z,17.17
2019-04-05T09:32:45.125Z,16.97
2019-04-05T09:35:15.428Z,17.10
2019-04-05T09:37:46.008Z,18.23
2019-04-05T09:40:16.158Z,18.13
2019-04-05T09:42:46.214Z,16.77
2019-04-05T09:45:16.393Z,18.10
2019-04-05T09:47:47.406Z,18.67
2019-04-05T09:50:18.069Z,19.70
2019-04-05T09:52:48.120Z,19.03
2019-04-05T09:55:18.189Z,23.70
2019-04-05T09:57:48.297Z,19.63
2019-04-05T10:00:23.327Z,21.33
2019-04-05T10:02:53.407Z,19.77
2019-04-05T10:05:23.453Z,21.37
2019-04-05T10:07:55.406Z,22.40
2019-04-05T10:10:25.290Z,23.13
2019-04-05T10:12:55.326Z,24.07
2019-04-05T10:15:25.606Z,22.87
2019-04-05T10:17:55.678Z,23.43
2019-04-05T10:20:25.883Z,24.43
2019-04-05T10:22:56.564Z,24.20
2019-04-05T10:25:26.692Z,23.63
2019-04-05T10:27:57.210Z,21.83
2019-04-05T10:30:27.325Z,24.07
2019-04-05T10:32:57.388Z,24.60
2019-04-05T10:35:27.433Z,24.23
2019-04-05T10:37:58.448Z,24.80
2019-04-05T10:40:29.087Z,23.63
2019-04-05T10:42:59.265Z,23.73
2019-04-05T10:45:29.366Z,24.37
2019-04-05T10:47:59.414Z,24.37
2019-04-05T10:50:29.467Z,22.23
2019-04-05T10:52:59.511Z,20.13
2019-04-05T10:55:29.560Z,20.30
2019-04-05T10:57:59.756Z,19.70
2019-04-05T11:00:29.913Z,21.80
2019-04-05T11:03:00.143Z,20.13
2019-04-05T11:05:30.290Z,19.47
2019-04-05T11:08:00.514Z,20.73
2019-04-05T11:10:30.734Z,21.03
2019-04-05T11:13:00.839Z,21.47
2019-04-05T11:15:34.078Z,20.77
2019-04-05T11:18:04.704Z,19.53
2019-04-05T11:20:34.854Z,18.50
2019-04-05T11:23:04.884Z,18.13
2019-04-05T11:25:34.991Z,20.53
2019-04-05T11:28:05.070Z,22.00
2019-04-05T11:30:47.750Z,18.37
2019-04-05T11:33:19.777Z,17.17
2019-04-05T11:35:49.600Z,17.43
2019-04-05T11:38:20.358Z,20.50
2019-04-05T11:40:51.065Z,18.53
2019-04-05T11:43:26.374Z,19.50
2019-04-05T11:45:55.788Z,19.73
2019-04-05T11:48:26.161Z,17.23
2019-04-05T11:50:56.558Z,18.27
2019-04-05T11:53:26.630Z,16.97
2019-04-05T11:55:56.698Z,17.23
2019-04-05T11:58:27.779Z,17.63
2019-04-05T12:01:23.321Z,18.40
2019-04-05T12:03:52.798Z,17.97
2019-04-05T12:06:22.963Z,18.83
2019-04-05T12:08:53.163Z,18.33
2019-04-05T12:11:23.339Z,17.87
2019-04-05T12:13:53.449Z,17.77
2019-04-05T12:16:23.502Z,17.33
2019-04-05T12:18:53.575Z,16.77
2019-04-05T12:21:24.670Z,15.87
2019-04-05T12:23:54.751Z,13.73
2019-04-05T12:26:24.972Z,14.47
2019-04-05T12:28:55.104Z,14.43
2019-04-05T12:31:26.261Z,15.00
2019-04-05T12:33:56.391Z,14.43
2019-04-05T12:36:26.491Z,14.57
2019-04-05T12:38:56.597Z,16.13
2019-04-05T12:41:26.674Z,15.77
2019-04-05T12:43:56.953Z,15.67
2019-04-05T12:46:27.051Z,15.10
2019-04-05T12:48:57.151Z,14.47
2019-04-05T12:51:27.290Z,12.87
2019-04-05T12:53:57.508Z,15.10
2019-04-05T12:56:27.645Z,14.23
2019-04-05T12:58:56.739Z,12.43
2019-04-05T13:01:26.828Z,10.80
2019-04-05T13:03:58.709Z,11.00
2019-04-05T13:06:28.748Z,11.37
2019-04-05T13:08:58.873Z,10.97
2019-04-05T13:11:29.074Z,9.07
2019-04-05T13:13:59.201Z,10.20
2019-04-05T13:16:30.318Z,8.37
2019-04-05T13:19:00.970Z,9.40
2019-04-05T13:21:33.002Z,11.47
2019-04-05T13:24:09.266Z,10.33
2019-04-05T13:26:37.028Z,10.13
2019-04-05T13:29:07.208Z,10.03
2019-04-05T13:31:37.586Z,9.00
2019-04-05T13:34:07.657Z,9.50
2019-04-05T13:36:37.957Z,8.93
2019-04-05T13:39:11.060Z,9.07
2019-04-05T13:41:41.101Z,8.47
2019-04-05T13:44:11.793Z,8.23
2019-04-05T13:46:42.801Z,9.80
2019-04-05T13:49:13.131Z,8.33
2019-04-05T13:51:43.548Z,8.80
2019-04-05T13:54:13.604Z,7.00
2019-04-05T13:56:43.737Z,6.77
2019-04-05T13:59:14.379Z,6.23
2019-04-05T14:01:44.560Z,5.97
2019-04-05T14:04:16.972Z,7.27
2019-04-05T14:06:46.504Z,6.87
2019-04-05T14:09:16.585Z,9.03
2019-04-05T14:11:46.892Z,13.27
2019-04-05T14:14:17.268Z,12.00
2019-04-05T14:16:47.414Z,10.97
2019-04-05T14:19:19.135Z,8.70
2019-04-05T14:21:52.722Z,10.03
2019-04-05T14:24:23.484Z,10.40
2019-04-05T14:26:53.652Z,10.20
2019-04-05T14:29:23.768Z,11.40
2019-04-05T14:31:54.626Z,10.57
2019-04-05T14:34:24.681Z,9.37
2019-04-05T14:36:54.780Z,8.53
2019-04-05T14:39:24.973Z,8.30
2019-04-05T14:42:08.800Z,6.30
2019-04-05T14:44:27.602Z,6.30
2019-04-05T14:46:58.084Z,6.30
2019-04-05T14:49:30.742Z,5.63
2019-04-05T14:52:19.687Z,6.23
2019-04-05T14:54:50.228Z,6.07
2019-04-05T14:57:20.273Z,6.83
2019-04-05T14:59:50.659Z,6.70
2019-04-05T15:02:20.725Z,6.37
2019-04-05T15:04:52.837Z,7.73
2019-04-05T15:07:23.487Z,7.07
2019-04-05T15:09:55.588Z,7.33
2019-04-05T15:12:28.777Z,7.30
2019-04-05T15:14:57.703Z,8.17
2019-04-05T15:17:29.835Z,8.40
2019-04-05T15:20:05.603Z,8.17
2019-04-05T15:22:36.087Z,9.13
2019-04-05T15:25:07.704Z,10.07
2019-04-05T15:27:38.916Z,9.70
2019-04-05T15:30:09.486Z,9.90
2019-04-05T15:32:39.666Z,9.07
2019-04-05T15:35:09.995Z,8.93
2019-04-05T15:37:40.053Z,8.07
2019-04-05T15:40:10.845Z,8.40
2019-04-05T15:42:42.086Z,7.70
2019-04-05T15:45:15.714Z,8.90
2019-04-05T15:47:44.300Z,9.30
2019-04-05T15:50:15.056Z,9.63
2019-04-05T15:52:45.147Z,8.90
2019-04-05T15:55:18.595Z,8.67
2019-04-05T15:57:48.941Z,9.30
2019-04-05T16:00:25.940Z,8.37
2019-04-05T16:02:57.973Z,8.13
2019-04-05T16:05:30.112Z,8.13
2019-04-05T16:08:00.279Z,8.37
2019-04-05T16:10:30.763Z,9.33
2019-04-05T16:13:00.846Z,11.63
2019-04-05T16:15:32.322Z,9.60
2019-04-05T16:18:06.594Z,13.30
2019-04-05T16:20:36.955Z,13.73
2019-04-05T16:23:08.022Z,12.50
2019-04-05T16:25:38.421Z,11.23
2019-04-05T16:28:08.457Z,11.00
2019-04-05T16:30:39.854Z,10.63
2019-04-05T16:33:10.898Z,10.07
2019-04-05T16:35:41.001Z,9.50
2019-04-05T16:38:11.451Z,9.93
2019-04-05T16:40:41.584Z,10.63
2019-04-05T16:43:11.634Z,10.63
2019-04-05T16:45:42.422Z,10.50
2019-04-05T16:48:12.553Z,11.10
2019-04-05T16:50:42.660Z,11.50
2019-04-05T16:53:14.230Z,13.87
2019-04-05T16:55:44.314Z,12.97
2019-04-05T16:58:15.602Z,12.47
2019-04-05T17:00:47.067Z,12.30
2019-04-05T17:03:17.955Z,10.00
2019-04-05T17:05:48.522Z,7.87
2019-04-05T17:08:19.976Z,9.40
2019-04-05T17:10:50.589Z,9.67
2019-04-05T17:13:20.781Z,10.53
2019-04-05T17:15:50.828Z,11.40
2019-04-05T17:18:20.938Z,12.10
2019-04-05T17:20:50.990Z,12.13
2019-04-05T17:23:23.596Z,12.13
2019-04-05T17:25:54.451Z,13.27
2019-04-05T17:28:24.698Z,14.67
2019-04-05T17:30:54.765Z,10.30
2019-04-05T17:33:24.822Z,14.37
2019-04-05T17:35:55.145Z,15.67
2019-04-05T17:38:25.220Z,16.00
2019-04-05T17:40:55.689Z,13.90
2019-04-05T17:43:30.403Z,13.00
2019-04-05T17:46:00.995Z,11.80
2019-04-05T17:48:31.090Z,12.90
2019-04-05T17:51:02.041Z,12.43
2019-04-05T17:53:32.141Z,11.67
2019-04-05T17:56:02.905Z,12.27
2019-04-05T17:58:34.098Z,11.90
2019-04-05T18:01:04.261Z,11.47
2019-04-05T18:03:34.433Z,10.80
2019-04-05T18:06:05.187Z,11.30
2019-04-05T18:08:35.368Z,11.50
2019-04-05T18:11:06.023Z,11.53
2019-04-05T18:13:36.107Z,11.30
2019-04-05T18:16:06.428Z,11.27
2019-04-05T18:18:36.563Z,10.70
2019-04-05T18:21:06.864Z,12.33
2019-04-05T18:23:37.004Z,10.70
2019-04-05T18:26:07.661Z,14.33
2019-04-05T18:28:38.980Z,14.73
2019-04-05T18:31:09.750Z,15.30
2019-04-05T18:33:40.846Z,13.20
2019-04-05T18:36:11.209Z,13.10
2019-04-05T18:38:41.522Z,12.80
2019-04-05T18:41:12.102Z,16.23
2019-04-05T18:43:42.160Z,16.07
2019-04-05T18:46:12.464Z,15.57
2019-04-05T18:48:42.740Z,14.97
2019-04-05T18:51:12.918Z,13.47
2019-04-05T18:53:43.023Z,13.17
2019-04-05T18:56:15.088Z,14.27
2019-04-05T18:58:45.155Z,14.50
2019-04-05T19:01:15.252Z,14.43
2019-04-05T19:03:45.352Z,15.10
2019-04-05T19:06:15.437Z,15.23
2019-04-05T19:08:45.542Z,15.93
2019-04-05T19:11:16.364Z,13.90
2019-04-05T19:13:46.458Z,13.90
2019-04-05T19:16:17.214Z,14.13
2019-04-05T19:18:47.316Z,14.93
2019-04-05T19:21:17.432Z,14.07
2019-04-05T19:23:51.107Z,15.00
2019-04-05T19:26:19.392Z,15.40
2019-04-05T19:28:49.527Z,15.53
2019-04-05T19:49:02.610Z,19.50
2019-04-05T19:51:33.753Z,18.57
2019-04-05T19:54:04.013Z,17.10
2019-04-05T19:56:35.437Z,18.63
2019-04-05T19:59:05.534Z,18.23
2019-04-05T20:01:35.654Z,20.90
2019-04-05T20:04:05.709Z,17.53
2019-04-05T20:06:35.932Z,20.93
2019-04-05T20:09:07.580Z,24.30
2019-04-05T20:11:37.674Z,26.40
2019-04-05T20:14:07.795Z,27.90
2019-04-05T20:16:37.858Z,23.87
2019-04-05T20:19:07.950Z,22.00
2019-04-05T20:21:38.442Z,17.43
2019-04-05T20:24:14.027Z,18.07
2019-04-05T20:26:40.805Z,17.20
2019-04-05T20:29:11.774Z,17.40
2019-04-05T20:32:00.577Z,18.40
2019-04-05T20:34:38.514Z,13.60
2019-04-05T20:37:17.371Z,14.67
2019-04-05T20:39:53.942Z,14.33
2019-04-05T20:42:31.704Z,13.83
2019-04-05T20:45:14.313Z,14.37
2019-04-05T20:47:54.853Z,13.27
2019-04-05T20:50:34.258Z,14.70
2019-04-05T20:53:19.828Z,17.20
2019-04-05T20:55:50.985Z,16.93
2019-04-05T20:58:21.050Z,15.27
2019-04-05T21:00:51.120Z,14.90
2019-04-05T21:03:21.193Z,15.57
2019-04-05T21:05:51.235Z,14.90
2019-04-05T21:08:21.321Z,14.17
2019-04-05T21:10:52.195Z,15.00
2019-04-05T21:13:22.269Z,15.00
2019-04-05T21:15:52.382Z,15.30
2019-04-05T21:18:22.427Z,14.07
2019-04-05T21:20:52.453Z,13.17
2019-04-05T21:23:22.543Z,13.23
2019-04-05T21:25:52.641Z,12.70
2019-04-05T21:28:22.689Z,13.30
2019-04-05T21:30:52.763Z,12.07
2019-04-05T21:33:22.891Z,12.73
2019-04-05T21:35:53.013Z,12.60
2019-04-05T21:38:23.099Z,12.73
2019-04-05T21:40:53.222Z,11.60
2019-04-05T21:43:23.304Z,11.60
2019-04-05T21:45:54.655Z,12.07
2019-04-05T21:48:24.805Z,11.77
2019-04-05T21:50:54.876Z,12.70
2019-04-05T21:53:24.938Z,11.50
2019-04-05T21:55:55.026Z,10.83
2019-04-05T21:58:26.015Z,11.20
2019-04-05T22:01:08.502Z,11.07
2019-04-05T22:03:39.634Z,11.10
2019-04-05T22:06:09.721Z,11.80
2019-04-05T22:08:39.943Z,10.83
2019-04-05T22:11:10.012Z,10.90
2019-04-05T22:13:40.243Z,10.23
2019-04-05T22:16:10.378Z,9.83
2019-04-05T22:18:41.489Z,10.93
2019-04-05T22:21:12.467Z,11.13
2019-04-05T22:23:43.527Z,10.33
2019-04-05T22:26:15.070Z,11.30
2019-04-05T22:28:45.103Z,10.30
2019-04-05T22:31:15.297Z,11.07
2019-04-05T22:33:45.392Z,10.97
2019-04-05T22:36:15.489Z,10.87
2019-04-05T22:38:46.453Z,11.67
2019-04-05T22:41:16.765Z,11.00
2019-04-05T22:43:46.847Z,11.33
2019-04-05T22:46:16.928Z,11.70
2019-04-05T22:48:47.055Z,11.67
2019-04-05T22:51:17.126Z,11.13
2019-04-05T22:53:47.209Z,11.53
2019-04-05T22:56:17.375Z,11.33
2019-04-05T22:58:47.498Z,11.67
2019-04-05T23:01:17.551Z,10.77
2019-04-05T23:03:47.845Z,12.33
2019-04-05T23:06:17.978Z,11.47
2019-04-05T23:08:48.056Z,11.30
2019-04-05T23:11:18.661Z,11.37
2019-04-05T23:13:48.882Z,11.87
2019-04-05T23:16:19.983Z,11.80
2019-04-05T23:18:50.556Z,11.77
2019-04-05T23:21:20.668Z,12.40
2019-04-05T23:23:51.124Z,12.47
2019-04-05T23:26:22.355Z,12.63
2019-04-05T23:28:52.423Z,12.27
2019-04-05T23:31:22.935Z,12.20
2019-04-05T23:33:54.120Z,13.07
2019-04-05T23:36:25.676Z,13.10
2019-04-05T23:38:56.790Z,13.10
2019-04-05T23:41:26.906Z,12.80
2019-04-05T23:43:56.963Z,13.10
2019-04-05T23:46:27.394Z,13.47
2019-04-05T23:48:57.861Z,13.63
2019-04-05T23:51:27.973Z,13.17
2019-04-05T23:53:58.059Z,14.33
2019-04-05T23:56:28.125Z,15.07
2019-04-05T23:58:58.219Z,14.23
